Time;durP1;ratioP1;P1;durP2;ratioP2;P2;SDS_P1;SDS_P2;PMS_P1;PMS_P2;Temp;Humidity;BMP_temperature;BMP_pressure;BME280_temperature;BME280_humidity;BME280_pressure;Samples;Min_cycle;Max_cycle;Signal;HPM_P1;HPM_P2
2023/08/23 00:00:07;;;;;;;10.23;6.70;;;;;;;;;;5067195;28;20047;-78
2023/08/23 00:02:33;;;;;;;12.27;6.72;;;;;;;;;;5086705;28;20040;-78
2023/08/23 00:04:59;;;;;;;10.50;6.18;;;;;;;;;;5076602;28;20051;-77
2023/08/23 00:07:25;;;;;;;8.77;6.50;;;;;;;;;;5072600;28;20056;-78
2023/08/23 00:09:52;;;;;;;10.85;7.00;;;;;;;;;;5085205;28;20040;-78
2023/08/23 00:12:18;;;;;;;10.32;5.95;;;;;;;;;;5070627;28;20056;-78
2023/08/23 00:14:44;;;;;;;9.43;6.00;;;;;;;;;;5069985;28;20071;-78
2023/08/23 00:17:10;;;;;;;8.73;5.30;;;;;;;;;;5089770;28;20506;-78
2023/08/23 00:19:39;;;;;;;8.55;5.93;;;;;;;;;;5064214;28;20067;-78
2023/08/23 00:22:05;;;;;;;9.52;5.63;;;;;;;;;;5089854;28;20047;-78
2023/08/23 00:24:31;;;;;;;7.93;5.43;;;;;;;;;;5070184;28;20513;-77
2023/08/23 00:26:57;;;;;;;11.55;6.75;;;;;;;;;;5092151;28;20071;-78
2023/08/23 00:29:23;;;;;;;12.25;6.85;;;;;;;;;;5073348;28;20059;-78
2023/08/23 00:31:49;;;;;;;11.43;7.55;;;;;;;;;;5073722;28;20044;-78
2023/08/23 00:34:15;;;;;;;9.52;6.55;;;;;;;;;;5070456;28;20052;-78
2023/08/23 00:36:41;;;;;;;9.82;7.13;;;;;;;;;;5082771;28;20426;-78
2023/08/23 00:39:10;;;;;;;11.35;6.15;;;;;;;;;;5100027;28;20093;-78
2023/08/23 00:41:37;;;;;;;9.35;6.47;;;;;;;;;;5066737;28;20076;-78
2023/08/23 00:44:03;;;;;;;8.93;6.32;;;;;;;;;;5079667;28;20052;-78
2023/08/23 00:46:29;;;;;;;8.10;5.53;;;;;;;;;;5085405;28;20086;-79
2023/08/23 00:48:55;;;;;;;10.07;5.72;;;;;;;;;;5083397;28;20536;-78
2023/08/23 00:51:21;;;;;;;11.05;6.35;;;;;;;;;;5084064;28;20072;-78
2023/08/23 00:53:47;;;;;;;11.77;7.13;;;;;;;;;;5083861;28;20071;-78
2023/08/23 00:56:13;;;;;;;10.13;6.90;;;;;;;;;;5084189;28;20052;-78
2023/08/23 00:58:40;;;;;;;11.60;8.68;;;;;;;;;;5085168;28;20033;-78
2023/08/23 01:01:06;;;;;;;13.88;8.57;;;;;;;;;;5087821;28;20048;-79
2023/08/23 01:03:33;;;;;;;11.65;7.55;;;;;;;;;;5089614;28;20044;-78
2023/08/23 01:06:14;;;;;;;9.32;7.57;;;;;;;;;;5072373;28;20048;-77
2023/08/23 01:09:01;;;;;;;9.48;7.38;;;;;;;;;;5074596;28;20047;-78
2023/08/23 01:11:36;;;;;;;10.85;6.85;;;;;;;;;;5037545;28;20052;-78
2023/08/23 01:14:06;;;;;;;10.07;6.70;;;;;;;;;;5073391;28;20051;-78
2023/08/23 01:16:33;;;;;;;9.27;6.38;;;;;;;;;;5087136;28;20500;-78
2023/08/23 01:19:01;;;;;;;8.52;5.32;;;;;;;;;;5087424;28;20123;-78
2023/08/23 01:21:37;;;;;;;8.95;5.15;;;;;;;;;;5069541;28;20476;-78
2023/08/23 01:24:08;;;;;;;9.45;5.55;;;;;;;;;;5092239;28;20066;-77
2023/08/23 01:26:35;;;;;;;11.07;5.32;;;;;;;;;;5088306;28;20112;-78
2023/08/23 01:29:01;;;;;;;8.32;5.43;;;;;;;;;;5084588;28;20044;-78
2023/08/23 01:31:28;;;;;;;7.72;5.70;;;;;;;;;;5086872;28;20044;-78
2023/08/23 01:33:58;;;;;;;9.18;6.22;;;;;;;;;;5073239;28;20036;-79
2023/08/23 01:36:27;;;;;;;9.32;6.07;;;;;;;;;;5069733;28;20441;-78
2023/08/23 01:38:53;;;;;;;9.80;6.25;;;;;;;;;;5070096;28;20043;-79
2023/08/23 01:41:19;;;;;;;10.07;6.47;;;;;;;;;;5089808;28;20471;-78
2023/08/23 01:43:46;;;;;;;11.55;6.60;;;;;;;;;;5066068;28;20046;-78
2023/08/23 01:46:12;;;;;;;11.40;6.95;;;;;;;;;;5083787;28;20041;-78
2023/08/23 01:48:38;;;;;;;16.50;6.95;;;;;;;;;;5074063;28;20482;-79
2023/08/23 01:51:05;;;;;;;11.30;6.85;;;;;;;;;;5068869;28;20052;-78
2023/08/23 01:53:31;;;;;;;10.82;5.93;;;;;;;;;;5068486;28;20051;-78
2023/08/23 01:55:57;;;;;;;9.88;5.90;;;;;;;;;;5087166;28;20117;-78
2023/08/23 01:58:25;;;;;;;8.57;5.30;;;;;;;;;;5066038;28;20512;-78
2023/08/23 02:00:51;;;;;;;9.70;5.25;;;;;;;;;;5066463;28;20399;-78
2023/08/23 02:03:18;;;;;;;8.20;5.05;;;;;;;;;;5093551;28;20554;-78
2023/08/23 02:05:44;;;;;;;8.48;5.82;;;;;;;;;;5067892;28;20522;-78
2023/08/23 02:08:10;;;;;;;11.25;6.53;;;;;;;;;;5090519;28;20052;-78
2023/08/23 02:10:36;;;;;;;8.68;6.07;;;;;;;;;;5089850;28;20056;-78
2023/08/23 02:13:05;;;;;;;7.32;6.03;;;;;;;;;;5090711;28;20043;-78
2023/08/23 02:15:31;;;;;;;10.48;7.18;;;;;;;;;;5070635;28;20560;-78
2023/08/23 02:17:57;;;;;;;10.63;8.05;;;;;;;;;;5064573;28;20131;-78
2023/08/23 02:20:23;;;;;;;13.25;9.38;;;;;;;;;;5090169;28;20097;-78
2023/08/23 02:22:49;;;;;;;13.25;9.25;;;;;;;;;;5087080;28;20101;-79
2023/08/23 02:25:15;;;;;;;13.57;9.38;;;;;;;;;;5088834;28;20044;-78
2023/08/23 02:27:42;;;;;;;11.35;9.73;;;;;;;;;;5087748;28;20040;-79
2023/08/23 02:30:08;;;;;;;12.80;10.50;;;;;;;;;;5072042;28;20048;-78
2023/08/23 02:32:34;;;;;;;14.38;10.65;;;;;;;;;;5067809;28;20062;-78
2023/08/23 02:35:00;;;;;;;12.82;11.52;;;;;;;;;;5082755;28;20036;-78
2023/08/23 02:37:26;;;;;;;14.15;10.75;;;;;;;;;;5077374;28;20047;-78
2023/08/23 02:39:52;;;;;;;18.33;11.82;;;;;;;;;;5088341;28;20344;-78
2023/08/23 02:42:18;;;;;;;14.55;11.45;;;;;;;;;;5090038;28;20044;-79
2023/08/23 02:44:44;;;;;;;12.10;10.80;;;;;;;;;;5086939;28;20046;-78
2023/08/23 02:47:10;;;;;;;14.32;11.77;;;;;;;;;;5066061;28;20390;-78
2023/08/23 02:49:36;;;;;;;13.13;10.90;;;;;;;;;;5079860;28;20062;-79
2023/08/23 02:52:03;;;;;;;13.80;10.18;;;;;;;;;;5061825;28;20044;-78
2023/08/23 02:54:29;;;;;;;9.45;6.10;;;;;;;;;;5080615;28;20510;-78
2023/08/23 02:56:55;;;;;;;8.63;4.60;;;;;;;;;;5084666;28;20501;-78
2023/08/23 02:59:21;;;;;;;7.65;4.82;;;;;;;;;;5071813;28;20495;-78
2023/08/23 03:01:47;;;;;;;10.25;4.90;;;;;;;;;;5068747;28;20051;-79
2023/08/23 03:04:14;;;;;;;8.20;4.80;;;;;;;;;;5089069;28;20047;-78
2023/08/23 03:06:40;;;;;;;6.30;4.25;;;;;;;;;;5067296;28;20053;-78
2023/08/23 03:09:06;;;;;;;6.13;4.53;;;;;;;;;;5067059;28;20408;-78
2023/08/23 03:11:32;;;;;;;8.93;4.82;;;;;;;;;;5069125;28;20048;-79
2023/08/23 03:13:58;;;;;;;7.88;4.60;;;;;;;;;;5070588;28;20039;-79
2023/08/23 03:16:24;;;;;;;9.85;4.75;;;;;;;;;;5064805;28;20040;-79
2023/08/23 03:18:50;;;;;;;7.97;4.65;;;;;;;;;;5066397;28;20101;-77
2023/08/23 03:21:16;;;;;;;8.35;4.38;;;;;;;;;;5066604;28;20087;-79
2023/08/23 03:23:42;;;;;;;8.45;4.55;;;;;;;;;;5069289;28;20079;-79
2023/08/23 03:26:08;;;;;;;8.23;5.05;;;;;;;;;;5064444;28;20055;-79
2023/08/23 03:28:34;;;;;;;10.35;4.65;;;;;;;;;;5069409;28;20086;-78
2023/08/23 03:31:03;;;;;;;11.55;4.97;;;;;;;;;;5058879;28;20147;-78
2023/08/23 03:33:30;;;;;;;7.00;4.65;;;;;;;;;;5065718;28;20403;-79
2023/08/23 03:35:56;;;;;;;9.02;4.68;;;;;;;;;;5072812;28;20043;-79
2023/08/23 03:38:22;;;;;;;10.13;5.15;;;;;;;;;;5059975;28;20052;-79
2023/08/23 03:40:49;;;;;;;9.63;5.15;;;;;;;;;;5067903;28;20059;-79
2023/08/23 03:43:15;;;;;;;8.35;5.30;;;;;;;;;;5071913;28;20055;-78
2023/08/23 03:45:48;;;;;;;10.70;4.75;;;;;;;;;;5067015;28;20048;-78
2023/08/23 03:48:14;;;;;;;9.90;4.97;;;;;;;;;;5071242;28;20047;-78
2023/08/23 03:50:40;;;;;;;10.27;5.18;;;;;;;;;;5069784;28;20051;-78
2023/08/23 03:53:07;;;;;;;7.82;4.88;;;;;;;;;;5073583;28;20117;-78
2023/08/23 03:55:35;;;;;;;10.63;4.88;;;;;;;;;;5069650;28;20101;-78
2023/08/23 03:58:01;;;;;;;8.55;4.70;;;;;;;;;;5072779;28;20123;-79
2023/08/23 04:00:27;;;;;;;10.65;5.10;;;;;;;;;;5068086;28;20058;-78
2023/08/23 04:02:53;;;;;;;7.63;4.88;;;;;;;;;;5069649;28;20053;-78
2023/08/23 04:05:19;;;;;;;9.30;5.50;;;;;;;;;;5074377;28;20049;-78
2023/08/23 04:07:45;;;;;;;8.98;5.95;;;;;;;;;;5056252;28;20186;-78
2023/08/23 04:10:11;;;;;;;8.88;5.43;;;;;;;;;;5049004;28;21118;-78
2023/08/23 04:12:37;;;;;;;9.73;5.47;;;;;;;;;;5051504;28;20152;-78
2023/08/23 04:15:03;;;;;;;9.32;5.72;;;;;;;;;;5049598;28;20120;-78
2023/08/23 04:17:29;;;;;;;10.52;5.97;;;;;;;;;;5047794;28;20049;-78
2023/08/23 04:19:55;;;;;;;12.75;6.40;;;;;;;;;;5056623;28;20047;-79
2023/08/23 04:22:22;;;;;;;9.65;6.20;;;;;;;;;;5058047;28;20405;-78
2023/08/23 04:24:49;;;;;;;11.93;6.25;;;;;;;;;;5059399;28;20481;-79
2023/08/23 04:27:15;;;;;;;11.18;6.80;;;;;;;;;;5047009;28;20048;-78
2023/08/23 04:29:41;;;;;;;12.52;7.00;;;;;;;;;;5050058;28;20041;-79
2023/08/23 04:32:10;;;;;;;12.95;7.18;;;;;;;;;;5048992;28;20051;-78
2023/08/23 04:34:36;;;;;;;9.73;6.53;;;;;;;;;;5044422;28;20052;-78
2023/08/23 04:37:04;;;;;;;12.80;6.95;;;;;;;;;;5051036;28;20389;-78
2023/08/23 04:39:30;;;;;;;11.50;7.43;;;;;;;;;;5042104;28;20053;-79
2023/08/23 04:41:56;;;;;;;13.40;8.25;;;;;;;;;;5053778;28;20132;-79
2023/08/23 04:44:22;;;;;;;18.80;9.95;;;;;;;;;;5048306;28;20468;-79
2023/08/23 04:46:48;;;;;;;18.50;9.60;;;;;;;;;;5039849;28;20057;-78
2023/08/23 04:49:14;;;;;;;15.77;10.63;;;;;;;;;;5055470;28;20450;-79
2023/08/23 04:51:40;;;;;;;17.92;12.32;;;;;;;;;;5055803;28;20510;-79
2023/08/23 04:54:06;;;;;;;19.95;12.52;;;;;;;;;;5050303;28;20044;-79
2023/08/23 04:56:32;;;;;;;20.55;13.63;;;;;;;;;;5056940;28;20063;-79
2023/08/23 04:58:58;;;;;;;20.65;13.10;;;;;;;;;;5061332;28;20447;-79
2023/08/23 05:01:24;;;;;;;19.40;13.85;;;;;;;;;;5049167;28;20045;-78
2023/08/23 05:03:50;;;;;;;24.50;14.85;;;;;;;;;;5047883;28;20131;-78
2023/08/23 05:06:16;;;;;;;22.02;14.65;;;;;;;;;;5058862;28;20131;-78
2023/08/23 05:08:42;;;;;;;23.73;13.95;;;;;;;;;;5068855;28;20097;-78
2023/08/23 05:11:08;;;;;;;20.15;14.10;;;;;;;;;;5080479;28;20087;-78
2023/08/23 05:13:34;;;;;;;33.28;24.50;;;;;;;;;;5074835;28;20474;-78
2023/08/23 05:16:00;;;;;;;22.73;15.43;;;;;;;;;;5074626;28;20138;-78
2023/08/23 05:18:26;;;;;;;22.35;13.68;;;;;;;;;;5066594;28;20097;-78
2023/08/23 05:20:57;;;;;;;21.02;13.13;;;;;;;;;;5075055;28;20044;-78
2023/08/23 05:23:23;;;;;;;20.95;12.88;;;;;;;;;;5094909;28;20127;-78
2023/08/23 05:25:51;;;;;;;22.00;13.27;;;;;;;;;;5112248;28;20078;-78
2023/08/23 05:28:18;;;;;;;19.00;12.82;;;;;;;;;;5077076;28;20052;-79
2023/08/23 05:30:45;;;;;;;19.75;12.45;;;;;;;;;;5091442;28;20075;-78
2023/08/23 05:33:11;;;;;;;19.95;11.93;;;;;;;;;;5070135;28;20440;-79
2023/08/23 05:35:37;;;;;;;20.63;11.68;;;;;;;;;;5075529;28;20598;-79
2023/08/23 05:38:03;;;;;;;16.27;9.85;;;;;;;;;;5088058;28;20044;-79
2023/08/23 05:40:29;;;;;;;17.42;7.63;;;;;;;;;;5090078;28;20059;-79
2023/08/23 05:42:55;;;;;;;12.73;8.98;;;;;;;;;;5072126;28;20036;-78
2023/08/23 05:45:22;;;;;;;15.38;7.50;;;;;;;;;;5070708;28;20075;-78
2023/08/23 05:47:48;;;;;;;20.83;12.70;;;;;;;;;;5076616;28;20069;-78
2023/08/23 05:50:14;;;;;;;18.58;12.00;;;;;;;;;;5074940;28;20048;-79
2023/08/23 05:52:40;;;;;;;19.25;11.30;;;;;;;;;;5078918;28;20082;-78
2023/08/23 05:55:08;;;;;;;14.95;8.25;;;;;;;;;;5083289;28;20076;-78
2023/08/23 05:57:34;;;;;;;18.17;9.85;;;;;;;;;;5085950;28;20047;-78
2023/08/23 06:00:00;;;;;;;17.02;10.00;;;;;;;;;;5070842;28;20044;-78
2023/08/23 06:02:26;;;;;;;18.30;8.57;;;;;;;;;;5097267;28;20040;-78
2023/08/23 06:04:52;;;;;;;14.50;5.85;;;;;;;;;;5089990;28;20047;-78
2023/08/23 06:07:18;;;;;;;13.20;5.50;;;;;;;;;;5070032;28;20040;-79
2023/08/23 06:09:44;;;;;;;12.32;4.97;;;;;;;;;;5087110;28;20043;-78
2023/08/23 06:12:13;;;;;;;8.68;4.55;;;;;;;;;;5085706;28;20044;-77
2023/08/23 06:14:39;;;;;;;10.77;4.57;;;;;;;;;;5083999;28;20097;-78
2023/08/23 06:17:06;;;;;;;8.43;4.80;;;;;;;;;;5072009;28;20089;-78
2023/08/23 06:19:32;;;;;;;10.35;5.07;;;;;;;;;;5065859;28;20135;-78
2023/08/23 06:21:58;;;;;;;9.48;4.75;;;;;;;;;;5069634;28;20040;-78
2023/08/23 06:24:27;;;;;;;14.98;4.70;;;;;;;;;;5080468;28;20032;-78
2023/08/23 06:26:53;;;;;;;9.68;4.70;;;;;;;;;;5067457;28;20598;-78
2023/08/23 06:29:19;;;;;;;12.88;4.38;;;;;;;;;;5068451;28;20051;-78
2023/08/23 06:31:45;;;;;;;9.23;4.80;;;;;;;;;;5069459;28;20036;-78
2023/08/23 06:34:11;;;;;;;12.32;4.97;;;;;;;;;;5087936;28;20687;-79
2023/08/23 06:36:37;;;;;;;10.35;4.45;;;;;;;;;;5065962;28;20043;-79
2023/08/23 06:39:04;;;;;;;14.40;6.10;;;;;;;;;;5072597;28;20035;-79
2023/08/23 06:41:30;;;;;;;15.65;10.02;;;;;;;;;;5072171;28;20140;-78
2023/08/23 06:44:02;;;;;;;21.98;11.13;;;;;;;;;;5088389;28;20036;-79
2023/08/23 06:46:28;;;;;;;21.88;11.88;;;;;;;;;;5071813;28;20048;-79
2023/08/23 06:48:55;;;;;;;19.08;10.30;;;;;;;;;;5083893;28;20055;-78
2023/08/23 06:51:21;;;;;;;21.13;10.98;;;;;;;;;;5072386;28;20040;-78
2023/08/23 06:53:51;;;;;;;17.67;10.05;;;;;;;;;;5066478;28;20052;-78
2023/08/23 06:56:17;;;;;;;22.13;10.35;;;;;;;;;;5086716;28;20063;-77
2023/08/23 06:58:43;;;;;;;17.00;10.18;;;;;;;;;;5084834;28;20556;-77
2023/08/23 07:01:14;;;;;;;21.45;9.60;;;;;;;;;;5068575;28;20115;-78
2023/08/23 07:03:43;;;;;;;21.13;10.30;;;;;;;;;;5055338;28;20423;-76
2023/08/23 07:06:12;;;;;;;21.13;10.30;;;;;;;;;;5089732;28;20122;-78
2023/08/23 07:08:38;;;;;;;19.67;11.07;;;;;;;;;;5090928;28;20044;-78
2023/08/23 07:11:04;;;;;;;19.00;9.98;;;;;;;;;;5085202;28;20048;-78
2023/08/23 07:13:30;;;;;;;17.17;9.43;;;;;;;;;;5067265;28;20044;-78
2023/08/23 07:15:56;;;;;;;17.23;11.23;;;;;;;;;;5089025;28;20044;-79
2023/08/23 07:18:22;;;;;;;17.02;10.73;;;;;;;;;;5071980;28;20135;-79
2023/08/23 07:20:48;;;;;;;19.20;11.30;;;;;;;;;;5064392;28;20036;-79
2023/08/23 07:23:14;;;;;;;22.38;11.80;;;;;;;;;;5082021;28;20039;-78
2023/08/23 07:25:42;;;;;;;17.23;11.80;;;;;;;;;;5089474;28;20044;-79
2023/08/23 07:28:08;;;;;;;22.65;11.55;;;;;;;;;;5068049;28;20055;-78
2023/08/23 07:30:34;;;;;;;24.40;11.65;;;;;;;;;;5075860;28;20062;-77
2023/08/23 07:33:00;;;;;;;19.45;11.80;;;;;;;;;;5088140;28;20155;-79
2023/08/23 07:35:26;;;;;;;24.55;12.45;;;;;;;;;;5075879;28;20126;-79
2023/08/23 07:38:00;;;;;;;20.38;10.98;;;;;;;;;;5094036;28;20036;-80
2023/08/23 07:40:26;;;;;;;22.05;10.50;;;;;;;;;;5074024;28;20040;-79
2023/08/23 07:42:52;;;;;;;19.52;10.07;;;;;;;;;;5094844;28;20051;-78
2023/08/23 07:45:18;;;;;;;20.77;10.07;;;;;;;;;;5081187;28;20067;-78
2023/08/23 07:47:44;;;;;;;18.50;9.27;;;;;;;;;;5093964;28;20189;-78
2023/08/23 07:50:10;;;;;;;23.13;9.70;;;;;;;;;;5095792;28;20036;-78
2023/08/23 07:52:37;;;;;;;17.88;10.07;;;;;;;;;;5096150;28;20546;-78
2023/08/23 07:55:05;;;;;;;15.05;9.10;;;;;;;;;;5078925;28;20040;-78
2023/08/23 07:57:31;;;;;;;16.52;8.85;;;;;;;;;;5094958;28;20484;-77
2023/08/23 07:59:57;;;;;;;20.42;8.95;;;;;;;;;;5095340;28;20044;-78
2023/08/23 08:02:23;;;;;;;16.98;9.90;;;;;;;;;;5063614;28;20070;-79
2023/08/23 08:04:49;;;;;;;16.38;9.13;;;;;;;;;;5082701;28;20048;-78
2023/08/23 08:07:15;;;;;;;15.20;8.95;;;;;;;;;;5076095;28;20048;-78
2023/08/23 08:09:41;;;;;;;22.45;9.38;;;;;;;;;;5078896;28;20091;-78
2023/08/23 08:12:07;;;;;;;20.65;10.05;;;;;;;;;;5076799;28;20129;-78
2023/08/23 08:14:34;;;;;;;17.00;9.10;;;;;;;;;;5096490;28;20480;-78
2023/08/23 08:17:00;;;;;;;21.17;10.57;;;;;;;;;;5096367;28;20040;-78
2023/08/23 08:19:26;;;;;;;19.02;9.75;;;;;;;;;;5076688;28;20400;-78
2023/08/23 08:21:53;;;;;;;14.00;8.45;;;;;;;;;;5095486;28;20043;-77
2023/08/23 08:24:19;;;;;;;15.43;8.32;;;;;;;;;;5093831;28;20443;-78
2023/08/23 08:26:45;;;;;;;18.73;9.10;;;;;;;;;;5090040;28;20530;-79
2023/08/23 08:29:12;;;;;;;19.90;9.30;;;;;;;;;;5093496;28;20449;-78
2023/08/23 08:31:40;;;;;;;16.65;9.48;;;;;;;;;;5096173;28;20048;-78
2023/08/23 08:34:06;;;;;;;17.55;9.63;;;;;;;;;;5096113;28;20050;-78
2023/08/23 08:36:32;;;;;;;18.75;9.25;;;;;;;;;;5078090;28;20411;-78
2023/08/23 08:38:58;;;;;;;19.50;10.90;;;;;;;;;;5102973;28;20093;-78
2023/08/23 08:41:24;;;;;;;19.65;10.20;;;;;;;;;;5090806;28;20136;-77
2023/08/23 08:43:52;;;;;;;20.10;11.18;;;;;;;;;;5075773;28;20040;-78
2023/08/23 08:46:18;;;;;;;21.08;11.90;;;;;;;;;;5080124;28;20044;-79
2023/08/23 08:48:46;;;;;;;20.15;10.90;;;;;;;;;;5069572;28;20048;-79
2023/08/23 08:51:19;;;;;;;18.25;10.55;;;;;;;;;;5093672;28;20442;-79
2023/08/23 08:53:51;;;;;;;18.20;11.38;;;;;;;;;;5075841;28;20063;-78
2023/08/23 08:56:19;;;;;;;25.23;10.73;;;;;;;;;;5091293;28;20537;-78
2023/08/23 08:58:46;;;;;;;18.27;10.35;;;;;;;;;;5075476;28;20094;-78
2023/08/23 09:01:13;;;;;;;18.13;10.23;;;;;;;;;;5096806;28;20483;-78
2023/08/23 09:03:40;;;;;;;23.35;9.60;;;;;;;;;;5068639;28;20079;-78
2023/08/23 09:06:06;;;;;;;17.52;9.90;;;;;;;;;;5094103;28;20044;-78
2023/08/23 09:08:35;;;;;;;17.13;10.52;;;;;;;;;;5091698;28;20080;-78
2023/08/23 09:11:01;;;;;;;19.38;10.35;;;;;;;;;;5056085;28;20048;-78
2023/08/23 09:13:28;;;;;;;20.70;12.52;;;;;;;;;;5073995;28;20058;-78
2023/08/23 09:15:55;;;;;;;17.38;10.50;;;;;;;;;;5072453;28;20091;-78
2023/08/23 09:18:21;;;;;;;20.13;13.15;;;;;;;;;;5059929;28;20105;-77
2023/08/23 09:20:48;;;;;;;18.48;11.68;;;;;;;;;;5092994;28;20123;-79
2023/08/23 09:23:14;;;;;;;18.33;12.30;;;;;;;;;;5073106;28;20101;-79
2023/08/23 09:25:40;;;;;;;17.02;10.50;;;;;;;;;;5075219;28;20044;-79
2023/08/23 09:28:12;;;;;;;15.68;10.35;;;;;;;;;;5072368;28;20051;-79
2023/08/23 09:30:38;;;;;;;16.23;7.68;;;;;;;;;;5073832;28;20059;-79
2023/08/23 09:33:07;;;;;;;14.52;6.25;;;;;;;;;;5092757;28;20068;-79
2023/08/23 09:35:33;;;;;;;13.48;5.85;;;;;;;;;;5078162;28;20052;-79
2023/08/23 09:38:00;;;;;;;13.45;6.30;;;;;;;;;;5068485;28;20064;-78
2023/08/23 09:40:27;;;;;;;12.27;5.05;;;;;;;;;;5092684;28;20044;-79
2023/08/23 09:42:53;;;;;;;13.90;5.80;;;;;;;;;;5073503;28;20407;-79
2023/08/23 09:45:23;;;;;;;8.73;4.57;;;;;;;;;;5072892;28;20076;-79
2023/08/23 09:47:54;;;;;;;13.85;4.97;;;;;;;;;;5074029;28;20048;-78
2023/08/23 09:50:22;;;;;;;11.18;4.50;;;;;;;;;;5073479;28;20131;-81
2023/08/23 09:53:00;;;;;;;12.13;4.60;;;;;;;;;;5080592;28;20440;-81
2023/08/23 09:55:28;;;;;;;9.80;4.00;;;;;;;;;;5074162;28;20058;-81
2023/08/23 09:57:59;;;;;;;7.70;4.68;;;;;;;;;;5088041;28;20393;-82
2023/08/23 10:00:30;;;;;;;6.75;3.38;;;;;;;;;;5091107;28;20154;-81
2023/08/23 10:03:02;;;;;;;10.63;3.67;;;;;;;;;;5090889;28;20048;-82
2023/08/23 10:05:29;;;;;;;5.90;3.30;;;;;;;;;;5073416;28;20502;-80
2023/08/23 10:07:57;;;;;;;8.13;4.13;;;;;;;;;;5091979;28;20056;-82
2023/08/23 10:10:23;;;;;;;6.10;3.30;;;;;;;;;;5064134;28;20153;-80
2023/08/23 10:12:51;;;;;;;8.05;3.80;;;;;;;;;;5072227;28;20078;-80
2023/08/23 10:15:22;;;;;;;10.38;3.42;;;;;;;;;;5055022;28;20044;-80
2023/08/23 10:17:52;;;;;;;9.50;3.67;;;;;;;;;;5054042;28;20503;-80
2023/08/23 10:20:34;;;;;;;6.68;3.42;;;;;;;;;;5076028;28;20040;-81
2023/08/23 10:23:00;;;;;;;7.55;3.72;;;;;;;;;;5081340;28;20047;-81
2023/08/23 10:25:26;;;;;;;9.93;3.50;;;;;;;;;;5088215;28;20376;-81
2023/08/23 10:27:53;;;;;;;7.32;3.30;;;;;;;;;;5055214;28;20056;-81
2023/08/23 10:30:26;;;;;;;4.93;3.92;;;;;;;;;;5090763;28;20048;-84
2023/08/23 10:32:53;;;;;;;6.13;3.55;;;;;;;;;;5067085;28;20085;-83
2023/08/23 10:35:23;;;;;;;5.85;3.50;;;;;;;;;;5073015;28;20087;-80
2023/08/23 10:37:51;;;;;;;7.88;3.85;;;;;;;;;;5066619;28;20043;-83
2023/08/23 10:40:19;;;;;;;8.10;3.83;;;;;;;;;;5073473;28;20400;-83
2023/08/23 10:42:47;;;;;;;5.78;3.50;;;;;;;;;;5090246;28;20044;-83
2023/08/23 10:45:16;;;;;;;11.77;3.60;;;;;;;;;;5073679;28;20127;-83
2023/08/23 10:47:42;;;;;;;4.47;2.70;;;;;;;;;;5084979;28;20048;-83
2023/08/23 10:50:09;;;;;;;7.10;3.30;;;;;;;;;;5089503;28;20051;-83
2023/08/23 10:52:35;;;;;;;5.85;3.00;;;;;;;;;;5086005;28;20036;-82
2023/08/23 10:55:02;;;;;;;5.88;2.55;;;;;;;;;;5069740;28;20047;-82
2023/08/23 10:57:28;;;;;;;3.05;2.63;;;;;;;;;;5112997;28;20137;-83
2023/08/23 10:59:54;;;;;;;8.50;3.05;;;;;;;;;;5088901;28;20058;-83
2023/08/23 11:02:20;;;;;;;6.30;3.10;;;;;;;;;;5063168;28;20055;-82
2023/08/23 11:04:47;;;;;;;6.75;3.15;;;;;;;;;;5071895;28;20056;-81
2023/08/23 11:07:14;;;;;;;6.20;2.97;;;;;;;;;;5070599;28;20067;-84
2023/08/23 11:09:40;;;;;;;3.90;2.60;;;;;;;;;;5087641;28;20113;-81
2023/08/23 11:12:07;;;;;;;5.45;2.67;;;;;;;;;;5091326;28;20514;-80
2023/08/23 11:14:33;;;;;;;5.07;2.70;;;;;;;;;;5066572;28;20056;-81
2023/08/23 11:16:59;;;;;;;6.53;3.70;;;;;;;;;;5087489;28;20121;-79
2023/08/23 11:19:25;;;;;;;7.80;3.17;;;;;;;;;;5085809;28;20050;-81
2023/08/23 11:21:52;;;;;;;6.22;3.15;;;;;;;;;;5088835;28;20040;-80
2023/08/23 11:24:18;;;;;;;4.78;3.10;;;;;;;;;;5088756;28;20097;-80
2023/08/23 11:26:44;;;;;;;6.28;3.22;;;;;;;;;;5071343;28;20438;-80
2023/08/23 11:29:10;;;;;;;7.10;3.15;;;;;;;;;;5070618;28;20461;-81
2023/08/23 11:31:37;;;;;;;6.30;4.07;;;;;;;;;;5086764;28;20063;-80
2023/08/23 11:34:07;;;;;;;7.97;4.72;;;;;;;;;;5087186;28;20122;-80
2023/08/23 11:36:33;;;;;;;10.25;4.75;;;;;;;;;;5090264;28;20131;-80
2023/08/23 11:39:04;;;;;;;8.77;5.72;;;;;;;;;;5089665;28;20056;-81
2023/08/23 11:41:34;;;;;;;6.35;3.45;;;;;;;;;;5082325;28;20409;-80
2023/08/23 11:44:09;;;;;;;5.55;3.88;;;;;;;;;;5085199;28;20079;-81
2023/08/23 11:46:38;;;;;;;5.13;3.92;;;;;;;;;;5066362;28;20064;-81
2023/08/23 11:49:06;;;;;;;5.63;3.65;;;;;;;;;;5090282;28;20046;-80
2023/08/23 11:51:39;;;;;;;5.72;3.58;;;;;;;;;;5082532;28;20073;-80
2023/08/23 11:54:05;;;;;;;7.25;3.88;;;;;;;;;;5090228;28;20104;-82
2023/08/23 11:56:33;;;;;;;6.82;4.28;;;;;;;;;;5070832;28;20032;-74
2023/08/23 11:58:59;;;;;;;5.25;3.75;;;;;;;;;;5087727;28;20040;-80
2023/08/23 12:01:25;;;;;;;5.95;3.10;;;;;;;;;;5058888;28;20476;-80
2023/08/23 12:03:51;;;;;;;5.55;2.33;;;;;;;;;;5071490;28;20100;-80
2023/08/23 12:06:17;;;;;;;5.82;2.40;;;;;;;;;;5086569;28;20419;-80
2023/08/23 12:08:43;;;;;;;3.45;2.25;;;;;;;;;;5077664;28;20048;-82
2023/08/23 12:11:10;;;;;;;3.35;2.03;;;;;;;;;;5094520;28;20380;-80
2023/08/23 12:13:37;;;;;;;4.05;1.70;;;;;;;;;;5090701;28;20036;-81
2023/08/23 12:16:03;;;;;;;2.65;2.20;;;;;;;;;;5074891;28;20127;-80
2023/08/23 12:18:29;;;;;;;1.80;1.63;;;;;;;;;;5065989;28;20037;-81
2023/08/23 12:20:55;;;;;;;3.75;1.92;;;;;;;;;;5073606;28;20051;-80
2023/08/23 12:23:24;;;;;;;3.75;1.85;;;;;;;;;;5095157;28;20059;-81
2023/08/23 12:25:50;;;;;;;3.60;1.80;;;;;;;;;;5091968;28;20050;-80
2023/08/23 12:28:17;;;;;;;3.58;1.80;;;;;;;;;;5073794;28;20047;-81
2023/08/23 12:30:43;;;;;;;2.70;1.80;;;;;;;;;;5063642;28;20059;-84
2023/08/23 12:33:09;;;;;;;2.55;1.80;;;;;;;;;;5086246;28;20040;-85
2023/08/23 12:35:35;;;;;;;2.30;2.00;;;;;;;;;;5088451;28;20048;-86
2023/08/23 12:38:01;;;;;;;6.15;2.10;;;;;;;;;;5072653;28;20111;-85
2023/08/23 12:40:27;;;;;;;2.90;1.80;;;;;;;;;;5091290;28;20522;-85
2023/08/23 12:42:53;;;;;;;4.53;1.70;;;;;;;;;;5092782;28;20139;-83
2023/08/23 12:45:19;;;;;;;3.08;1.98;;;;;;;;;;5068071;28;20048;-81
2023/08/23 12:47:45;;;;;;;3.03;1.52;;;;;;;;;;5086091;28;20049;-81
2023/08/23 12:50:11;;;;;;;5.47;2.00;;;;;;;;;;5064113;28;20041;-80
2023/08/23 12:52:38;;;;;;;3.92;1.70;;;;;;;;;;5088746;28;20086;-82
2023/08/23 12:55:04;;;;;;;3.08;1.80;;;;;;;;;;5080576;28;20415;-84
2023/08/23 12:57:32;;;;;;;2.92;1.77;;;;;;;;;;5090292;28;20039;-79
2023/08/23 12:59:58;;;;;;;3.60;1.80;;;;;;;;;;5071178;28;20097;-80
2023/08/23 13:02:24;;;;;;;2.67;1.80;;;;;;;;;;5090318;28;20051;-82
2023/08/23 13:04:50;;;;;;;3.38;1.80;;;;;;;;;;5092881;28;20441;-81
2023/08/23 13:07:16;;;;;;;2.97;1.80;;;;;;;;;;5090419;28;20060;-82
2023/08/23 13:09:42;;;;;;;3.92;1.90;;;;;;;;;;5091972;28;20134;-82
2023/08/23 13:12:08;;;;;;;6.55;1.95;;;;;;;;;;5086528;28;20075;-82
2023/08/23 13:14:34;;;;;;;3.20;1.80;;;;;;;;;;5073039;28;20126;-82
2023/08/23 13:17:00;;;;;;;3.35;1.65;;;;;;;;;;5094346;28;20083;-81
2023/08/23 13:19:28;;;;;;;4.30;1.80;;;;;;;;;;5070105;28;20097;-83
2023/08/23 13:21:54;;;;;;;4.00;1.70;;;;;;;;;;5088759;28;20036;-80
2023/08/23 13:24:21;;;;;;;2.38;1.33;;;;;;;;;;5091536;28;20130;-80
2023/08/23 13:26:48;;;;;;;3.63;1.80;;;;;;;;;;5085534;28;20093;-80
2023/08/23 13:29:14;;;;;;;3.47;1.67;;;;;;;;;;5056709;28;20048;-79
2023/08/23 13:31:40;;;;;;;2.92;1.90;;;;;;;;;;5054886;28;20052;-79
2023/08/23 13:34:06;;;;;;;4.97;1.85;;;;;;;;;;5082367;28;20062;-80
2023/08/23 13:36:32;;;;;;;3.13;1.77;;;;;;;;;;5074038;28;20047;-79
2023/08/23 13:38:58;;;;;;;3.70;1.75;;;;;;;;;;5092312;28;20028;-80
2023/08/23 13:41:24;;;;;;;2.47;1.90;;;;;;;;;;5075303;28;20044;-79
2023/08/23 13:43:50;;;;;;;3.47;1.98;;;;;;;;;;5072399;28;20052;-79
2023/08/23 13:46:19;;;;;;;3.20;1.90;;;;;;;;;;5079359;28;20094;-80
2023/08/23 13:48:46;;;;;;;2.55;1.67;;;;;;;;;;5057944;28;20047;-80
2023/08/23 13:51:13;;;;;;;6.43;2.30;;;;;;;;;;5097677;28;20116;-79
2023/08/23 13:53:45;;;;;;;5.72;2.42;;;;;;;;;;5073584;28;20056;-79
2023/08/23 13:56:11;;;;;;;3.38;1.83;;;;;;;;;;5074130;28;20162;-80
2023/08/23 13:58:37;;;;;;;4.95;2.03;;;;;;;;;;5072029;28;20055;-80
2023/08/23 14:01:03;;;;;;;6.55;2.28;;;;;;;;;;5089878;28;20395;-80
2023/08/23 14:03:29;;;;;;;5.18;2.17;;;;;;;;;;5059904;28;20040;-80
2023/08/23 14:05:59;;;;;;;5.70;1.90;;;;;;;;;;5076458;28;20075;-80
2023/08/23 14:08:25;;;;;;;2.40;1.90;;;;;;;;;;5092219;28;20502;-80
2023/08/23 14:10:52;;;;;;;3.33;1.65;;;;;;;;;;5090432;28;20127;-80
2023/08/23 14:13:18;;;;;;;3.13;1.92;;;;;;;;;;5091988;28;20814;-79
2023/08/23 14:15:44;;;;;;;3.05;1.67;;;;;;;;;;5088382;28;20083;-80
2023/08/23 14:18:10;;;;;;;3.22;1.73;;;;;;;;;;5073124;28;20044;-79
2023/08/23 14:20:37;;;;;;;4.53;1.88;;;;;;;;;;5088913;28;20044;-80
2023/08/23 14:23:04;;;;;;;2.70;1.65;;;;;;;;;;5093261;28;20200;-79
2023/08/23 14:25:31;;;;;;;1.98;1.55;;;;;;;;;;5091809;28;20471;-78
2023/08/23 14:27:57;;;;;;;3.13;1.80;;;;;;;;;;5087768;28;20048;-79
2023/08/23 14:30:23;;;;;;;4.13;1.60;;;;;;;;;;5088484;28;20051;-78